Time;durP1;ratioP1;P1;durP2;ratioP2;P2;SDS_P1;SDS_P2;PMS_P1;PMS_P2;Temp;Humidity;BMP_temperature;BMP_pressure;BME280_temperature;BME280_humidity;BME280_pressure;Samples;Min_cycle;Max_cycle;Signal;HPM_P1;HPM_P2
2023/09/15 00:00:59;;;;;;;5.75;2.78;;;;;;;;;;6180009;23;20017;-89
2023/09/15 00:03:27;;;;;;;4.43;2.67;;;;;;;;;;6180895;23;20021;-89
2023/09/15 00:05:57;;;;;;;3.95;2.22;;;;;;;;;;6155212;23;20021;-88
2023/09/15 00:08:24;;;;;;;3.25;1.88;;;;;;;;;;6211845;23;20017;-89
2023/09/15 00:10:51;;;;;;;3.90;1.73;;;;;;;;;;6186069;23;20027;-89
2023/09/15 00:13:20;;;;;;;3.13;2.58;;;;;;;;;;6185376;23;20486;-89
2023/09/15 00:15:50;;;;;;;2.55;2.35;;;;;;;;;;6185739;23;20012;-89
2023/09/15 00:18:18;;;;;;;2.45;2.25;;;;;;;;;;6184619;23;20352;-88
2023/09/15 00:20:45;;;;;;;7.82;1.83;;;;;;;;;;6212094;23;20108;-88
2023/09/15 00:23:13;;;;;;;6.00;2.13;;;;;;;;;;6185772;23;20025;-89
2023/09/15 00:25:40;;;;;;;4.85;2.42;;;;;;;;;;6195817;23;20013;-89
2023/09/15 00:28:09;;;;;;;3.50;1.80;;;;;;;;;;6211863;23;20016;-88
2023/09/15 00:30:39;;;;;;;3.25;2.65;;;;;;;;;;6161214;23;20020;-88
2023/09/15 00:33:06;;;;;;;2.67;1.75;;;;;;;;;;6184886;23;20359;-89
2023/09/15 00:35:35;;;;;;;2.40;1.80;;;;;;;;;;6185359;23;20376;-88
2023/09/15 00:38:03;;;;;;;3.05;1.98;;;;;;;;;;6185099;23;20017;-89
2023/09/15 00:40:30;;;;;;;3.75;2.15;;;;;;;;;;6159795;23;20020;-89
2023/09/15 00:42:58;;;;;;;3.35;2.75;;;;;;;;;;6161164;23;20021;-88
2023/09/15 00:45:28;;;;;;;3.60;2.30;;;;;;;;;;6186156;23;20027;-88
2023/09/15 00:47:57;;;;;;;3.45;2.20;;;;;;;;;;6160197;23;20021;-88
2023/09/15 00:50:26;;;;;;;3.55;2.13;;;;;;;;;;6194643;23;20008;-88
2023/09/15 00:52:57;;;;;;;3.80;3.05;;;;;;;;;;6160618;23;20020;-89
2023/09/15 00:55:25;;;;;;;2.45;2.00;;;;;;;;;;6161467;23;20026;-89
2023/09/15 00:57:53;;;;;;;3.50;2.28;;;;;;;;;;6160658;23;20024;-88
2023/09/15 01:00:22;;;;;;;3.15;2.75;;;;;;;;;;6184423;23;20032;-88
2023/09/15 01:02:50;;;;;;;4.97;2.28;;;;;;;;;;6185862;23;20012;-88
2023/09/15 01:05:23;;;;;;;5.63;2.20;;;;;;;;;;6185549;23;20013;-88
2023/09/15 01:07:52;;;;;;;5.85;3.20;;;;;;;;;;6160162;23;20028;-88
2023/09/15 01:10:25;;;;;;;2.58;2.38;;;;;;;;;;6159812;23;20028;-88
2023/09/15 01:12:54;;;;;;;2.38;2.13;;;;;;;;;;6160532;23;20017;-88
2023/09/15 01:15:30;;;;;;;6.93;2.35;;;;;;;;;;6212400;23;20017;-88
2023/09/15 01:18:03;;;;;;;3.05;2.08;;;;;;;;;;6160941;23;20039;-90
2023/09/15 01:20:54;;;;;;;4.85;2.40;;;;;;;;;;6159982;23;20016;-89
2023/09/15 01:23:37;;;;;;;7.35;2.88;;;;;;;;;;6160709;23;20038;-88
2023/09/15 01:26:20;;;;;;;3.53;2.17;;;;;;;;;;6195227;23;20020;-89
2023/09/15 01:29:21;;;;;;;2.78;2.38;;;;;;;;;;6195332;23;20012;-88
2023/09/15 01:31:52;;;;;;;4.63;2.17;;;;;;;;;;6160761;23;20016;-88
2023/09/15 01:34:22;;;;;;;4.03;2.10;;;;;;;;;;6185197;23;20024;-88
2023/09/15 01:36:53;;;;;;;7.80;2.50;;;;;;;;;;6184416;23;20023;-88
2023/09/15 01:39:21;;;;;;;4.28;3.10;;;;;;;;;;6161911;23;20040;-88
2023/09/15 01:41:48;;;;;;;3.15;2.40;;;;;;;;;;6186570;23;20025;-88
2023/09/15 01:44:40;;;;;;;2.72;1.85;;;;;;;;;;6187540;23;20363;-89
2023/09/15 01:47:10;;;;;;;8.27;2.80;;;;;;;;;;6162019;23;20032;-89
2023/09/15 01:49:38;;;;;;;8.25;2.97;;;;;;;;;;6195310;23;20020;-88
2023/09/15 01:52:06;;;;;;;4.05;2.55;;;;;;;;;;6185458;23;20024;-88
2023/09/15 01:54:34;;;;;;;8.27;3.25;;;;;;;;;;6159804;23;20039;-88
2023/09/15 01:57:04;;;;;;;3.05;2.10;;;;;;;;;;6159933;23;20016;-88
2023/09/15 01:59:31;;;;;;;4.70;2.08;;;;;;;;;;6160094;23;20359;-88
2023/09/15 02:01:59;;;;;;;4.65;2.58;;;;;;;;;;6184595;23;20020;-88
2023/09/15 02:04:28;;;;;;;2.85;1.95;;;;;;;;;;6160511;23;20017;-87
2023/09/15 02:06:55;;;;;;;2.95;1.85;;;;;;;;;;6184400;23;20016;-88
2023/09/15 02:09:23;;;;;;;3.28;2.58;;;;;;;;;;6184292;23;20012;-88
2023/09/15 02:11:50;;;;;;;3.72;2.80;;;;;;;;;;6160123;23;20395;-88
2023/09/15 02:14:18;;;;;;;2.47;2.28;;;;;;;;;;6160330;23;20036;-88
2023/09/15 02:16:45;;;;;;;4.57;2.85;;;;;;;;;;6158806;23;20498;-88
2023/09/15 02:19:12;;;;;;;3.67;1.95;;;;;;;;;;6159819;23;20391;-89
2023/09/15 02:21:41;;;;;;;3.85;2.67;;;;;;;;;;6157173;23;20376;-88
2023/09/15 02:24:09;;;;;;;3.85;2.50;;;;;;;;;;6184438;23;20353;-88
2023/09/15 02:26:39;;;;;;;2.97;1.92;;;;;;;;;;6158975;23;20016;-87
2023/09/15 02:29:07;;;;;;;3.13;2.83;;;;;;;;;;6184008;23;20467;-88
2023/09/15 02:31:34;;;;;;;3.08;2.30;;;;;;;;;;6183984;23;20020;-88
2023/09/15 02:34:04;;;;;;;4.20;2.85;;;;;;;;;;6184593;23;20012;-89
2023/09/15 02:36:34;;;;;;;3.35;2.28;;;;;;;;;;6158945;23;20024;-89
2023/09/15 02:39:03;;;;;;;2.65;1.85;;;;;;;;;;6185090;23;20067;-88
2023/09/15 02:41:31;;;;;;;4.72;2.70;;;;;;;;;;6158881;23;20017;-88
2023/09/15 02:43:58;;;;;;;1.88;1.40;;;;;;;;;;6185834;23;20013;-88
2023/09/15 02:46:26;;;;;;;2.47;2.00;;;;;;;;;;6159884;23;20017;-88
2023/09/15 02:48:57;;;;;;;7.18;3.10;;;;;;;;;;6158837;23;20017;-88
2023/09/15 02:51:27;;;;;;;3.67;1.83;;;;;;;;;;6159701;23;20020;-88
2023/09/15 02:53:56;;;;;;;3.60;1.90;;;;;;;;;;6195099;23;20016;-88
2023/09/15 02:56:25;;;;;;;4.20;2.92;;;;;;;;;;6159418;23;20020;-88
2023/09/15 02:58:53;;;;;;;4.00;2.40;;;;;;;;;;6195365;23;20815;-88
2023/09/15 03:01:23;;;;;;;3.83;2.10;;;;;;;;;;6159290;23;20017;-88
2023/09/15 03:03:52;;;;;;;2.60;1.70;;;;;;;;;;6184422;23;20016;-88
2023/09/15 03:06:20;;;;;;;3.90;2.35;;;;;;;;;;6184310;23;20019;-88
2023/09/15 03:08:47;;;;;;;4.45;2.10;;;;;;;;;;6193455;23;20020;-88
2023/09/15 03:11:17;;;;;;;2.50;2.30;;;;;;;;;;6185252;23;20028;-89
2023/09/15 03:13:49;;;;;;;3.60;2.40;;;;;;;;;;6196035;23;20012;-88
2023/09/15 03:16:16;;;;;;;2.88;2.38;;;;;;;;;;6184304;23;20031;-89
2023/09/15 03:18:46;;;;;;;2.17;1.92;;;;;;;;;;6184962;23;20024;-88
2023/09/15 03:21:14;;;;;;;4.45;2.63;;;;;;;;;;6186005;23;20012;-89
2023/09/15 03:23:42;;;;;;;2.20;1.60;;;;;;;;;;6186738;23;20023;-88
2023/09/15 03:26:09;;;;;;;3.15;1.63;;;;;;;;;;6161724;23;20020;-88
2023/09/15 03:28:39;;;;;;;2.70;2.00;;;;;;;;;;6161228;23;20043;-88
2023/09/15 03:31:11;;;;;;;3.17;2.50;;;;;;;;;;6161277;23;20027;-88
2023/09/15 03:33:39;;;;;;;1.88;1.65;;;;;;;;;;6161903;23;20016;-89
2023/09/15 03:36:07;;;;;;;4.30;2.20;;;;;;;;;;6160622;23;20017;-88
2023/09/15 03:38:35;;;;;;;3.78;1.95;;;;;;;;;;6161713;23;20132;-88
2023/09/15 03:41:02;;;;;;;3.38;2.78;;;;;;;;;;6186644;23;20016;-88
2023/09/15 03:43:33;;;;;;;3.03;1.75;;;;;;;;;;6161356;23;20035;-88
2023/09/15 03:46:03;;;;;;;5.68;2.45;;;;;;;;;;6161739;23;20020;-88
2023/09/15 03:48:32;;;;;;;12.32;2.28;;;;;;;;;;6186058;23;20359;-88
2023/09/15 03:51:00;;;;;;;3.75;2.25;;;;;;;;;;6161198;23;20020;-89
2023/09/15 03:53:27;;;;;;;7.15;3.38;;;;;;;;;;6138322;23;20032;-88
2023/09/15 03:55:54;;;;;;;3.65;2.20;;;;;;;;;;6161105;23;20021;-87
2023/09/15 03:58:22;;;;;;;6.68;2.13;;;;;;;;;;6185722;23;20024;-88
2023/09/15 04:00:49;;;;;;;5.20;1.52;;;;;;;;;;6186423;23;20490;-87
2023/09/15 04:03:20;;;;;;;9.65;2.53;;;;;;;;;;6185593;23;20013;-88
2023/09/15 04:05:49;;;;;;;2.67;2.20;;;;;;;;;;6160891;23;20021;-88
2023/09/15 04:08:19;;;;;;;4.57;2.10;;;;;;;;;;6161033;23;20024;-88
2023/09/15 04:10:47;;;;;;;5.20;2.00;;;;;;;;;;6161163;23;20017;-88
2023/09/15 04:13:14;;;;;;;4.03;2.53;;;;;;;;;;6161725;23;20023;-88
2023/09/15 04:15:41;;;;;;;6.20;2.97;;;;;;;;;;6160638;23;20043;-88
2023/09/15 04:18:09;;;;;;;5.22;2.58;;;;;;;;;;6160542;23;20020;-88
2023/09/15 04:20:37;;;;;;;3.22;2.15;;;;;;;;;;6161791;23;20017;-88
2023/09/15 04:23:06;;;;;;;2.78;2.30;;;;;;;;;;6186214;23;20028;-88
2023/09/15 04:25:34;;;;;;;12.80;4.03;;;;;;;;;;6161027;23;20468;-88
2023/09/15 04:28:02;;;;;;;2.78;1.70;;;;;;;;;;6186061;23;20032;-88
2023/09/15 04:30:31;;;;;;;3.78;2.40;;;;;;;;;;6160173;23;20020;-88
2023/09/15 04:32:59;;;;;;;5.80;3.88;;;;;;;;;;6161072;23;20356;-88
2023/09/15 04:35:28;;;;;;;2.95;2.22;;;;;;;;;;6161435;23;20380;-88
2023/09/15 04:37:55;;;;;;;4.80;2.45;;;;;;;;;;6160224;23;20016;-87
2023/09/15 04:40:25;;;;;;;2.30;1.85;;;;;;;;;;6161596;23;20366;-89
2023/09/15 04:42:59;;;;;;;6.78;2.75;;;;;;;;;;6161025;23;20036;-88
2023/09/15 04:45:28;;;;;;;3.50;2.65;;;;;;;;;;6159803;23;20017;-88
2023/09/15 04:48:01;;;;;;;3.03;2.47;;;;;;;;;;6161012;23;20495;-88
2023/09/15 04:50:29;;;;;;;4.60;2.65;;;;;;;;;;6160828;23;20017;-89
2023/09/15 04:52:58;;;;;;;8.52;2.45;;;;;;;;;;6161209;23;20039;-88
2023/09/15 04:55:32;;;;;;;3.35;2.50;;;;;;;;;;6162020;23;20028;-88
2023/09/15 04:58:01;;;;;;;4.95;2.70;;;;;;;;;;6162677;23;20024;-88
2023/09/15 05:00:29;;;;;;;3.85;2.53;;;;;;;;;;6187386;23;20020;-88
2023/09/15 05:03:00;;;;;;;2.45;2.25;;;;;;;;;;6161881;23;20509;-88
2023/09/15 05:05:30;;;;;;;2.85;2.33;;;;;;;;;;6160489;23;20024;-88
2023/09/15 05:07:57;;;;;;;3.53;2.45;;;;;;;;;;6185386;23;20040;-88
2023/09/15 05:10:27;;;;;;;2.80;2.42;;;;;;;;;;6160805;23;20017;-88
2023/09/15 05:12:58;;;;;;;4.95;2.53;;;;;;;;;;6184204;23;20032;-89
2023/09/15 05:15:27;;;;;;;2.70;2.30;;;;;;;;;;6161307;23;20028;-89
2023/09/15 05:17:55;;;;;;;2.97;2.67;;;;;;;;;;6161752;23;20121;-90
2023/09/15 05:20:22;;;;;;;3.70;3.17;;;;;;;;;;6160676;23;20025;-90
2023/09/15 05:22:50;;;;;;;4.25;2.05;;;;;;;;;;6186889;23;20016;-89
2023/09/15 05:25:17;;;;;;;3.40;2.20;;;;;;;;;;6160038;23;20031;-90
2023/09/15 05:27:45;;;;;;;2.95;2.55;;;;;;;;;;6161246;23;20371;-90
2023/09/15 05:30:15;;;;;;;4.15;3.35;;;;;;;;;;6185829;23;20020;-90
2023/09/15 05:32:44;;;;;;;3.95;2.38;;;;;;;;;;6195182;23;20023;-90
2023/09/15 05:35:12;;;;;;;6.47;3.28;;;;;;;;;;6160704;23;20029;-90
2023/09/15 05:37:42;;;;;;;4.13;2.83;;;;;;;;;;6161110;23;20070;-89
2023/09/15 05:40:11;;;;;;;3.88;2.97;;;;;;;;;;6161040;23;20059;-91
2023/09/15 05:42:38;;;;;;;6.40;3.15;;;;;;;;;;6186993;23;20016;-89
2023/09/15 05:45:07;;;;;;;5.10;3.22;;;;;;;;;;6184836;23;20024;-90
2023/09/15 05:47:37;;;;;;;4.00;3.03;;;;;;;;;;6194236;23;20016;-89
2023/09/15 05:50:09;;;;;;;5.75;2.45;;;;;;;;;;6161861;23;20024;-89
2023/09/15 05:52:36;;;;;;;4.03;1.90;;;;;;;;;;6159224;23;20016;-91
2023/09/15 05:55:04;;;;;;;5.82;2.20;;;;;;;;;;6211860;23;20038;-90
2023/09/15 05:57:36;;;;;;;2.40;2.20;;;;;;;;;;6184875;23;20017;-90
2023/09/15 06:00:04;;;;;;;3.33;1.90;;;;;;;;;;6160251;23;20475;-90
2023/09/15 06:02:43;;;;;;;3.05;2.33;;;;;;;;;;6184534;23;20040;-89
2023/09/15 06:05:10;;;;;;;2.13;1.92;;;;;;;;;;6222070;23;20482;-89
2023/09/15 06:07:38;;;;;;;2.28;2.00;;;;;;;;;;6183691;23;20359;-89
2023/09/15 06:10:08;;;;;;;3.60;2.35;;;;;;;;;;6185530;23;20025;-89
2023/09/15 06:12:36;;;;;;;2.83;1.92;;;;;;;;;;6183968;23;20016;-91
2023/09/15 06:15:03;;;;;;;3.47;1.75;;;;;;;;;;6160952;23;20024;-89
2023/09/15 06:17:34;;;;;;;3.03;1.85;;;;;;;;;;6183744;23;20021;-89
2023/09/15 06:20:05;;;;;;;3.97;2.00;;;;;;;;;;6159198;23;20027;-89
2023/09/15 06:22:33;;;;;;;1.98;1.70;;;;;;;;;;6211009;23;20027;-89
2023/09/15 06:25:01;;;;;;;3.08;1.90;;;;;;;;;;6210918;23;20027;-90
2023/09/15 06:27:29;;;;;;;3.63;1.85;;;;;;;;;;6184728;23;20491;-90
2023/09/15 06:29:56;;;;;;;4.30;2.22;;;;;;;;;;6186227;23;20019;-90
2023/09/15 06:32:24;;;;;;;3.90;2.00;;;;;;;;;;6185940;23;20487;-90
2023/09/15 06:34:51;;;;;;;4.50;1.67;;;;;;;;;;6212439;23;20348;-91
2023/09/15 06:37:23;;;;;;;3.20;1.73;;;;;;;;;;6185307;23;20020;-90
2023/09/15 06:39:51;;;;;;;4.63;2.65;;;;;;;;;;6185140;23;20479;-90
2023/09/15 06:42:18;;;;;;;3.78;1.45;;;;;;;;;;6213979;23;20012;-91
2023/09/15 06:44:46;;;;;;;2.45;2.20;;;;;;;;;;6159433;23;20490;-90
2023/09/15 06:47:15;;;;;;;17.88;2.97;;;;;;;;;;6183417;23;20036;-90
2023/09/15 06:49:45;;;;;;;4.47;2.95;;;;;;;;;;6212139;23;20016;-90
2023/09/15 06:52:15;;;;;;;3.33;1.88;;;;;;;;;;6185793;23;20538;-90
2023/09/15 06:54:49;;;;;;;3.08;2.35;;;;;;;;;;6183748;23;20367;-90
2023/09/15 06:57:16;;;;;;;2.88;2.33;;;;;;;;;;6161841;23;20032;-92
2023/09/15 06:59:44;;;;;;;5.97;2.75;;;;;;;;;;6185566;23;20024;-91
2023/09/15 07:02:11;;;;;;;2.95;2.05;;;;;;;;;;6187099;23;20016;-90
2023/09/15 07:04:38;;;;;;;3.33;2.10;;;;;;;;;;6186893;23;20020;-91
2023/09/15 07:07:08;;;;;;;4.72;2.33;;;;;;;;;;6185690;23;20020;-92
2023/09/15 07:09:36;;;;;;;3.15;1.80;;;;;;;;;;6214681;23;20020;-92
2023/09/15 07:12:05;;;;;;;2.80;2.08;;;;;;;;;;6187405;23;20027;-90
2023/09/15 07:14:33;;;;;;;3.88;1.80;;;;;;;;;;6186521;23;20359;-90
2023/09/15 07:17:00;;;;;;;5.05;2.10;;;;;;;;;;6186785;23;20031;-91
2023/09/15 07:19:32;;;;;;;6.15;2.53;;;;;;;;;;6161742;23;20020;-90
2023/09/15 07:21:59;;;;;;;3.28;1.90;;;;;;;;;;6163401;23;20028;-91
2023/09/15 07:24:28;;;;;;;11.63;2.55;;;;;;;;;;6216184;23;20012;-91
2023/09/15 07:26:56;;;;;;;2.92;2.33;;;;;;;;;;6213568;23;20017;-90
2023/09/15 07:29:25;;;;;;;5.43;2.25;;;;;;;;;;6163117;23;20020;-91
2023/09/15 07:31:57;;;;;;;2.30;2.00;;;;;;;;;;6188882;23;20027;-91
2023/09/15 07:34:27;;;;;;;4.28;2.22;;;;;;;;;;6186436;23;20031;-91
2023/09/15 07:36:55;;;;;;;4.38;2.60;;;;;;;;;;6186695;23;20017;-92
2023/09/15 07:39:25;;;;;;;3.25;2.15;;;;;;;;;;6161468;23;20629;-91
2023/09/15 07:41:55;;;;;;;3.58;2.47;;;;;;;;;;6188178;23;20020;-92
2023/09/15 07:44:25;;;;;;;5.50;1.88;;;;;;;;;;6187954;23;20028;-89
2023/09/15 07:46:52;;;;;;;3.13;2.35;;;;;;;;;;6213722;23;20567;-91
2023/09/15 07:49:20;;;;;;;3.45;2.30;;;;;;;;;;6188302;23;20013;-92
2023/09/15 07:51:48;;;;;;;3.30;2.65;;;;;;;;;;6189533;23;20020;-92
2023/09/15 07:54:16;;;;;;;3.20;2.42;;;;;;;;;;6187813;23;20021;-91
2023/09/15 07:56:46;;;;;;;2.35;1.85;;;;;;;;;;6214031;23;20036;-92
2023/09/15 07:59:14;;;;;;;3.53;2.33;;;;;;;;;;6188069;23;20017;-92
2023/09/15 08:01:49;;;;;;;2.75;2.40;;;;;;;;;;6213870;23;20023;-92
2023/09/15 08:04:18;;;;;;;4.00;2.38;;;;;;;;;;6224683;23;20012;-92
2023/09/15 08:06:45;;;;;;;5.55;2.75;;;;;;;;;;6187005;23;20016;-92
2023/09/15 08:09:16;;;;;;;3.42;2.97;;;;;;;;;;6187654;23;20031;-91
2023/09/15 08:11:46;;;;;;;3.30;2.22;;;;;;;;;;6191489;23;20022;-92
2023/09/15 08:14:14;;;;;;;6.20;2.92;;;;;;;;;;6214063;23;20023;-92
2023/09/15 08:16:45;;;;;;;4.18;2.63;;;;;;;;;;6162128;23;20035;-91
2023/09/15 08:19:13;;;;;;;4.55;2.65;;;;;;;;;;6215169;23;20483;-93
2023/09/15 08:21:41;;;;;;;4.07;2.25;;;;;;;;;;6187889;23;20471;-91
2023/09/15 08:24:11;;;;;;;2.95;2.58;;;;;;;;;;6215392;23;20486;-90
2023/09/15 08:26:39;;;;;;;3.75;3.28;;;;;;;;;;6188949;23;20023;-91
2023/09/15 08:29:09;;;;;;;4.18;2.63;;;;;;;;;;6186890;23;20020;-92
2023/09/15 08:31:37;;;;;;;6.70;2.70;;;;;;;;;;6214646;23;20016;-92
2023/09/15 08:34:09;;;;;;;4.07;2.08;;;;;;;;;;6164088;23;20031;-92
2023/09/15 08:36:41;;;;;;;3.95;2.20;;;;;;;;;;6165987;23;20017;-92
2023/09/15 08:39:09;;;;;;;4.53;2.55;;;;;;;;;;6199233;23;20012;-92
2023/09/15 08:41:40;;;;;;;3.50;2.58;;;;;;;;;;6193526;23;20023;-92
2023/09/15 08:44:09;;;;;;;4.72;3.08;;;;;;;;;;6215159;23;20019;-92
2023/09/15 08:46:46;;;;;;;3.70;3.20;;;;;;;;;;6188190;23;20395;-92
2023/09/15 08:49:27;;;;;;;3.53;2.72;;;;;;;;;;6199356;23;20012;-91
2023/09/15 08:52:30;;;;;;;3.53;3.22;;;;;;;;;;6222004;22;20072;-91
2023/09/15 08:55:36;;;;;;;3.67;3.28;;;;;;;;;;6217903;23;20702;-92
2023/09/15 08:58:04;;;;;;;3.95;2.78;;;;;;;;;;6236243;23;20027;-92
2023/09/15 09:00:34;;;;;;;5.90;3.90;;;;;;;;;;6223513;23;20017;-92
2023/09/15 09:03:03;;;;;;;5.57;3.55;;;;;;;;;;6163498;23;20517;-93
2023/09/15 09:05:38;;;;;;;3.97;3.25;;;;;;;;;;6165322;23;20039;-93
2023/09/15 09:08:05;;;;;;;4.25;3.13;;;;;;;;;;6215453;23;20023;-93
2023/09/15 09:10:35;;;;;;;6.38;3.28;;;;;;;;;;6214467;23;20023;-92
2023/09/15 09:16:42;;;;;;;3.25;2.95;;;;;;;;;;6104528;23;20603;-91
2023/09/15 09:19:10;;;;;;;4.03;3.50;;;;;;;;;;6161507;23;20016;-91
2023/09/15 09:21:39;;;;;;;9.35;3.60;;;;;;;;;;6186952;23;20012;-91
2023/09/15 09:24:12;;;;;;;4.55;3.75;;;;;;;;;;6163371;23;20024;-92
2023/09/15 09:26:39;;;;;;;5.82;3.08;;;;;;;;;;6188379;23;20020;-93
2023/09/15 09:29:12;;;;;;;3.95;3.20;;;;;;;;;;6186961;23;20012;-92
2023/09/15 09:31:40;;;;;;;3.50;3.17;;;;;;;;;;6162598;23;20098;-92
2023/09/15 09:34:07;;;;;;;4.22;2.92;;;;;;;;;;6164441;23;20016;-91
2023/09/15 09:36:34;;;;;;;3.25;2.95;;;;;;;;;;6161308;23;20017;-91
2023/09/15 09:39:04;;;;;;;5.10;3.63;;;;;;;;;;6186794;23;20031;-92
2023/09/15 09:41:32;;;;;;;4.15;3.22;;;;;;;;;;6186822;23;20024;-92
2023/09/15 09:44:04;;;;;;;5.25;3.78;;;;;;;;;;6186534;23;20463;-91
2023/09/15 09:46:31;;;;;;;3.42;2.70;;;;;;;;;;6162955;23;20021;-92
2023/09/15 09:49:01;;;;;;;3.25;2.72;;;;;;;;;;6186934;23;20056;-91
2023/09/15 09:51:29;;;;;;;4.57;3.30;;;;;;;;;;6161517;23;20013;-93
2023/09/15 09:53:57;;;;;;;6.68;2.60;;;;;;;;;;6186794;23;20490;-91
2023/09/15 09:56:31;;;;;;;3.85;2.80;;;;;;;;;;6161904;23;20023;-92
2023/09/15 09:59:12;;;;;;;3.25;2.90;;;;;;;;;;6223635;23;20456;-92
2023/09/15 10:01:51;;;;;;;10.05;3.47;;;;;;;;;;6189174;23;20352;-92
2023/09/15 10:04:22;;;;;;;2.90;2.58;;;;;;;;;;6160149;23;20023;-93
2023/09/15 10:06:50;;;;;;;3.47;2.72;;;;;;;;;;6212733;23;20024;-93
2023/09/15 10:09:18;;;;;;;3.05;2.70;;;;;;;;;;6213630;23;20024;-92
2023/09/15 10:11:47;;;;;;;11.23;3.83;;;;;;;;;;6186773;23;20021;-92
2023/09/15 10:14:15;;;;;;;3.05;2.75;;;;;;;;;;6189740;23;20028;-92
2023/09/15 10:16:43;;;;;;;5.05;2.80;;;;;;;;;;6191894;23;20020;-93
2023/09/15 10:19:12;;;;;;;2.63;2.42;;;;;;;;;;6167152;23;20020;-92
2023/09/15 10:21:42;;;;;;;7.75;3.13;;;;;;;;;;6189481;23;20009;-94
2023/09/15 10:24:15;;;;;;;2.97;2.67;;;;;;;;;;6187122;23;20019;-94
2023/09/15 10:26:44;;;;;;;3.40;2.55;;;;;;;;;;6187553;23;20012;-96
2023/09/15 10:29:14;;;;;;;3.00;2.53;;;;;;;;;;6188113;23;20464;-93
2023/09/15 10:31:46;;;;;;;3.95;2.53;;;;;;;;;;6162246;23;20019;-92
2023/09/15 10:34:17;;;;;;;2.67;2.28;;;;;;;;;;6196585;23;20016;-93
2023/09/15 10:36:46;;;;;;;2.85;2.47;;;;;;;;;;6213133;23;20412;-93
2023/09/15 10:39:14;;;;;;;3.80;3.08;;;;;;;;;;6213960;23;20351;-92
2023/09/15 10:41:44;;;;;;;4.03;3.17;;;;;;;;;;6187498;23;20036;-93
2023/09/15 10:44:13;;;;;;;3.80;2.97;;;;;;;;;;6186689;23;20012;-94
2023/09/15 10:46:42;;;;;;;4.13;2.65;;;;;;;;;;6186737;23;20024;-92
2023/09/15 10:49:17;;;;;;;3.22;2.92;;;;;;;;;;6162404;23;20463;-96
2023/09/15 10:51:54;;;;;;;2.85;2.38;;;;;;;;;;6162433;23;20091;-93
2023/09/15 10:54:24;;;;;;;2.50;2.17;;;;;;;;;;6162570;23;20438;-95
2023/09/15 10:56:58;;;;;;;3.78;2.70;;;;;;;;;;6186898;23;20035;-92
2023/09/15 10:59:27;;;;;;;3.92;2.78;;;;;;;;;;6162570;23;20027;-93
2023/09/15 11:01:55;;;;;;;3.08;2.05;;;;;;;;;;6187196;23;20016;-93
2023/09/15 11:04:28;;;;;;;3.55;2.35;;;;;;;;;;6186680;23;20032;-93
2023/09/15 11:06:56;;;;;;;2.28;1.95;;;;;;;;;;6162110;23;20020;-92
2023/09/15 11:09:26;;;;;;;2.85;2.58;;;;;;;;;;6188518;23;20456;-93
2023/09/15 11:11:53;;;;;;;2.15;1.95;;;;;;;;;;6186686;23;20333;-93
2023/09/15 11:14:43;;;;;;;2.22;2.03;;;;;;;;;;6213964;23;20035;-93
2023/09/15 11:17:46;;;;;;;2.42;2.22;;;;;;;;;;6212674;23;20024;-92
2023/09/15 11:20:42;;;;;;;2.92;1.73;;;;;;;;;;6214046;23;20035;-93
2023/09/15 11:23:09;;;;;;;2.90;1.90;;;;;;;;;;6187249;23;20016;-93
2023/09/15 11:25:37;;;;;;;2.42;1.95;;;;;;;;;;6161220;23;20028;-93
2023/09/15 11:28:12;;;;;;;4.90;2.20;;;;;;;;;;6161826;23;20027;-93
2023/09/15 11:30:41;;;;;;;3.08;2.00;;;;;;;;;;6161849;23;20017;-93
2023/09/15 11:33:09;;;;;;;3.78;2.50;;;;;;;;;;6186784;23;20023;-93
2023/09/15 11:35:36;;;;;;;3.00;2.50;;;;;;;;;;6188343;23;20021;-93
2023/09/15 11:38:04;;;;;;;4.28;2.00;;;;;;;;;;6186643;23;20479;-93
2023/09/15 11:40:33;;;;;;;2.05;1.70;;;;;;;;;;6162686;23;20028;-93
2023/09/15 11:43:01;;;;;;;2.80;2.00;;;;;;;;;;6163094;23;20468;-93
2023/09/15 11:45:30;;;;;;;2.85;2.03;;;;;;;;;;6188928;23;20020;-93
2023/09/15 11:48:00;;;;;;;4.82;2.15;;;;;;;;;;6189876;23;20359;-93
2023/09/15 11:50:29;;;;;;;3.38;2.35;;;;;;;;;;6189384;23;20009;-89
2023/09/15 11:52:57;;;;;;;2.50;2.30;;;;;;;;;;6188979;23;20031;-90
2023/09/15 11:55:25;;;;;;;5.05;2.45;;;;;;;;;;6215480;23;20013;-91
2023/09/15 11:57:53;;;;;;;2.90;2.60;;;;;;;;;;6187965;23;20032;-91
2023/09/15 12:00:22;;;;;;;3.83;3.00;;;;;;;;;;6187966;23;20027;-90
2023/09/15 12:02:51;;;;;;;3.28;2.53;;;;;;;;;;6215085;23;20039;-90
2023/09/15 12:05:22;;;;;;;2.67;2.30;;;;;;;;;;6188036;23;20017;-89
2023/09/15 12:07:52;;;;;;;5.78;2.60;;;;;;;;;;6186957;23;20495;-90
2023/09/15 12:10:22;;;;;;;2.72;2.13;;;;;;;;;;6188277;23;20036;-90
2023/09/15 12:12:50;;;;;;;3.58;2.60;;;;;;;;;;6187482;23;20027;-90
2023/09/15 12:15:18;;;;;;;2.97;2.67;;;;;;;;;;6215542;23;20024;-90
2023/09/15 12:17:45;;;;;;;2.85;2.35;;;;;;;;;;6214887;23;20023;-90
2023/09/15 12:20:13;;;;;;;2.58;2.33;;;;;;;;;;6161401;23;20031;-91
2023/09/15 12:22:44;;;;;;;2.55;2.35;;;;;;;;;;6214356;23;20016;-90
2023/09/15 12:25:15;;;;;;;2.45;2.25;;;;;;;;;;6213816;23;20024;-89
2023/09/15 12:27:46;;;;;;;2.63;2.22;;;;;;;;;;6197137;23;20024;-90
2023/09/15 12:30:15;;;;;;;2.75;2.42;;;;;;;;;;6187229;23;20023;-90
2023/09/15 12:32:45;;;;;;;3.20;2.35;;;;;;;;;;6187255;23;20040;-89
2023/09/15 12:35:17;;;;;;;3.63;2.90;;;;;;;;;;6215531;23;20013;-90
2023/09/15 12:37:48;;;;;;;2.92;2.63;;;;;;;;;;6199916;23;20660;-90
2023/09/15 12:40:16;;;;;;;3.72;2.47;;;;;;;;;;6197415;23;20026;-92
2023/09/15 12:42:46;;;;;;;3.05;2.75;;;;;;;;;;6195111;23;20023;-92
2023/09/15 12:45:16;;;;;;;3.65;2.88;;;;;;;;;;6189526;23;20058;-91
2023/09/15 12:47:45;;;;;;;3.55;2.90;;;;;;;;;;6186780;23;20024;-91
2023/09/15 12:50:15;;;;;;;3.55;3.25;;;;;;;;;;6196466;23;20021;-91
2023/09/15 12:52:48;;;;;;;7.68;2.70;;;;;;;;;;6186829;23;20017;-92
2023/09/15 12:55:21;;;;;;;2.72;2.53;;;;;;;;;;6187184;23;20032;-91
2023/09/15 12:57:49;;;;;;;3.50;3.05;;;;;;;;;;6214195;23;20351;-92
2023/09/15 13:00:17;;;;;;;5.30;2.30;;;;;;;;;;6186830;23;20023;-91
2023/09/15 13:02:45;;;;;;;2.85;2.50;;;;;;;;;;6187184;23;20589;-91
2023/09/15 13:05:12;;;;;;;2.25;2.05;;;;;;;;;;6224345;23;20016;-90
2023/09/15 13:07:42;;;;;;;2.72;2.53;;;;;;;;;;6213278;23;20017;-92
2023/09/15 13:10:12;;;;;;;4.50;3.08;;;;;;;;;;6162639;23;20024;-92
2023/09/15 13:12:42;;;;;;;2.97;2.67;;;;;;;;;;6213088;23;20379;-91
2023/09/15 13:15:21;;;;;;;3.50;2.97;;;;;;;;;;6213136;23;20051;-91
2023/09/15 13:17:52;;;;;;;2.63;2.42;;;;;;;;;;6222946;23;20032;-90
2023/09/15 13:20:19;;;;;;;4.28;3.10;;;;;;;;;;6221483;23;20013;-91
2023/09/15 13:22:47;;;;;;;4.63;2.65;;;;;;;;;;6161583;23;20498;-91
2023/09/15 13:25:16;;;;;;;3.75;3.40;;;;;;;;;;6187695;23;20373;-91
2023/09/15 13:27:45;;;;;;;3.08;2.88;;;;;;;;;;6187305;23;20016;-92
2023/09/15 13:30:15;;;;;;;2.90;2.70;;;;;;;;;;6163417;23;20024;-91
2023/09/15 13:32:49;;;;;;;3.50;3.13;;;;;;;;;;6187448;23;20487;-91
2023/09/15 13:35:19;;;;;;;6.28;3.40;;;;;;;;;;6187234;23;20021;-92
2023/09/15 13:37:46;;;;;;;3.20;2.80;;;;;;;;;;6187502;23;20399;-92
2023/09/15 13:40:14;;;;;;;3.63;3.10;;;;;;;;;;6195693;23;20016;-93
2023/09/15 13:42:41;;;;;;;3.70;2.72;;;;;;;;;;6161823;23;20328;-90
2023/09/15 13:45:12;;;;;;;4.40;3.30;;;;;;;;;;6213198;23;20020;-91
2023/09/15 13:47:40;;;;;;;6.35;3.13;;;;;;;;;;6161101;23;20024;-91
2023/09/15 13:50:08;;;;;;;3.22;2.92;;;;;;;;;;6186795;23;20016;-92
2023/09/15 13:52:35;;;;;;;3.63;3.33;;;;;;;;;;6161933;23;20688;-91
2023/09/15 13:55:03;;;;;;;3.63;2.90;;;;;;;;;;6212264;23;20017;-93
2023/09/15 13:57:33;;;;;;;4.45;2.55;;;;;;;;;;6213440;23;20020;-91
2023/09/15 14:00:01;;;;;;;4.47;3.58;;;;;;;;;;6186861;23;20463;-91
2023/09/15 14:02:30;;;;;;;4.15;3.70;;;;;;;;;;6161344;23;20039;-93
2023/09/15 14:05:03;;;;;;;4.22;3.85;;;;;;;;;;6186374;23;20016;-91
2023/09/15 14:07:31;;;;;;;3.55;3.22;;;;;;;;;;6215602;23;20016;-91
2023/09/15 14:09:59;;;;;;;3.22;2.92;;;;;;;;;;6186629;23;20031;-91
2023/09/15 14:12:30;;;;;;;3.30;3.00;;;;;;;;;;6213499;23;20020;-91
2023/09/15 14:14:57;;;;;;;4.72;3.35;;;;;;;;;;6186157;23;20032;-91
2023/09/15 14:17:25;;;;;;;5.07;3.75;;;;;;;;;;6160570;23;20017;-91
2023/09/15 14:19:55;;;;;;;3.42;3.13;;;;;;;;;;6186917;23;20367;-93
2023/09/15 14:22:22;;;;;;;4.78;3.38;;;;;;;;;;6161032;23;20021;-91
2023/09/15 14:24:50;;;;;;;4.15;3.75;;;;;;;;;;6213930;23;20482;-91
2023/09/15 14:27:17;;;;;;;4.30;3.85;;;;;;;;;;6185583;23;20024;-91
2023/09/15 14:29:45;;;;;;;4.35;3.95;;;;;;;;;;6186573;23;20020;-92
2023/09/15 14:32:16;;;;;;;3.30;3.00;;;;;;;;;;6161773;23;20024;-91
2023/09/15 14:34:44;;;;;;;7.28;3.72;;;;;;;;;;6186602;23;20502;-91
2023/09/15 14:37:13;;;;;;;5.22;3.25;;;;;;;;;;6185851;23;20023;-92
2023/09/15 14:39:45;;;;;;;4.00;2.95;;;;;;;;;;6224055;23;20027;-91
2023/09/15 14:42:15;;;;;;;5.05;3.60;;;;;;;;;;6213271;23;20039;-90
2023/09/15 14:44:43;;;;;;;3.22;2.92;;;;;;;;;;6214082;23;20035;-91
2023/09/15 14:47:10;;;;;;;4.35;3.30;;;;;;;;;;6213620;23;20021;-91
2023/09/15 14:49:39;;;;;;;3.53;3.03;;;;;;;;;;6164183;23;20016;-91
2023/09/15 14:52:08;;;;;;;3.58;3.00;;;;;;;;;;6204973;23;20009;-92
2023/09/15 14:54:37;;;;;;;6.45;3.60;;;;;;;;;;6205297;23;20020;-91
2023/09/15 14:57:05;;;;;;;4.22;3.67;;;;;;;;;;6219032;23;20016;-92
2023/09/15 14:59:33;;;;;;;3.88;3.47;;;;;;;;;;6163360;23;20024;-92
2023/09/15 15:02:03;;;;;;;10.35;4.32;;;;;;;;;;6187971;23;20013;-92